Flight Number: EUR3078 Duration: 11:00
Departure: Madrid / Barajas (LEMD) at 07:00 Distance: 3442 Nm
Arrival: San Juan / Luis Munoz (TJSJ) at 18:00 Equipment: B777

Weather Information
Madrid / Barajas, Spain (LEMD) 40-27N 003-33W 582M Jan 22, 2018 - 03:00 AM EST / 2018.01.22 0800 UTC
Wind: from the N (350 degrees) at 3 MPH (3 KT):0
Visibility: greater than 7 mile(s):0 Weather: fog in the vicinity Temperature: 33 F (1 C) Dew Point: 33 F (1 C) Relative Humidity: 100% Pressure (altimeter): 30.39 in. Hg (1029 hPa)
ob: LEMD 220800Z 35003KT 9999 VCFG NSC 01/01 Q1029 NOSIG cycle: 8
Sunrise: 07:34 Sunset: 17:17 (UTC)

San Juan, Luis Munoz Marin International Airport, PR, United States (TJSJ) 18-27N 066-00W Jan 22, 2018 - 02:56 AM EST / 2018.01.22 0756 UTC
Wind: Calm:0
Visibility: 10 mile(s):0
Sky conditions: mostly clear Temperature: 75.0 F (23.9 C) Dew Point: 70.0 F (21.1 C) Relative Humidity: 84% Pressure (altimeter): 29.97 in. Hg (1014 hPa)
ob: TJSJ 220756Z 00000KT 10SM FEW022 24/21 A2997 RMK AO2 SLP148 T02390211 cycle: 8
Sunrise: 11:01 Sunset: 22:09 (UTC)

TAF:2018/01/22 06:24 TAF TJSJ 220520Z 2206/2306 13003KT P6SM FEW025 FM221400 08012KT P6SM SCT025 FM221600 08015KT P6SM VCSH SCT025 BKN050 FM222200 10006KT P6SM SCT030

This route has never been flown.

Route map